createdAt,value
2023-04-16T00:02:04.030Z,37.7
2023-04-16T00:14:29.821Z,19.1
2023-04-16T00:22:46.028Z,24.1
2023-04-16T00:26:56.524Z,40.4
2023-04-16T00:29:00.363Z,19.7
2023-04-16T00:33:08.073Z,31.3
2023-04-16T00:35:11.891Z,24.6
2023-04-16T00:37:15.739Z,35.2
2023-04-16T00:39:19.576Z,30.7
2023-04-16T00:41:26.248Z,27.6
2023-04-16T00:43:30.107Z,45.3
2023-04-16T00:48:41.088Z,27.8
2023-04-16T01:13:32.834Z,28.7
2023-04-16T01:19:44.400Z,59
2023-04-16T01:21:48.244Z,54.7
2023-04-16T01:38:24.775Z,40.6
2023-04-16T01:40:28.595Z,25.5
2023-04-16T01:42:32.408Z,48.2
2023-04-16T01:43:36.098Z,40.9
2023-04-16T01:45:39.618Z,39.1
2023-04-16T01:47:43.463Z,38.1
2023-04-16T01:49:47.287Z,44.1
2023-04-16T01:51:53.956Z,33.4
2023-04-16T01:53:57.820Z,35.4
2023-04-16T01:56:01.639Z,29.5
2023-04-16T01:58:05.483Z,39.7
2023-04-16T02:00:09.319Z,47.2
2023-04-16T02:02:13.277Z,35
2023-04-16T02:04:17.100Z,52.8
2023-04-16T02:08:27.536Z,43
2023-04-16T02:12:35.205Z,46.5
2023-04-16T02:14:39.078Z,54
2023-04-16T02:16:42.938Z,28
2023-04-16T02:18:46.734Z,39.4
2023-04-16T02:20:53.607Z,32.9
2023-04-16T02:22:57.248Z,42.8
2023-04-16T02:25:01.082Z,39.9
2023-04-16T02:27:04.927Z,37.6
2023-04-16T02:29:09.035Z,50.5
2023-04-16T02:33:16.467Z,37.7
2023-04-16T02:35:23.115Z,33.5
2023-04-16T02:42:00.374Z,58
2023-04-16T02:44:04.291Z,47
2023-04-16T02:46:08.131Z,51.1
2023-04-16T02:50:18.563Z,65.3
2023-04-16T02:52:22.418Z,67.6
2023-04-16T02:54:26.242Z,40.1
2023-04-16T02:56:30.099Z,56.7
2023-04-16T02:58:33.953Z,45.5
2023-04-16T03:00:37.767Z,40.1
2023-04-16T03:02:44.559Z,54.6
2023-04-16T03:04:48.275Z,41
2023-04-16T03:08:55.982Z,34.8
2023-04-16T03:10:59.809Z,41.8
2023-04-16T03:13:03.655Z,47.1
2023-04-16T03:15:07.517Z,43.2
2023-04-16T03:17:14.164Z,42.4
2023-04-16T03:23:25.696Z,58
2023-04-16T03:31:43.942Z,54.2
2023-04-16T03:33:47.758Z,46.8
2023-04-16T03:35:51.596Z,46.2
2023-04-16T03:36:54.960Z,67.6
2023-04-16T03:41:02.629Z,46.6
2023-04-16T03:43:06.490Z,57.9
2023-04-16T03:45:13.157Z,35.6
2023-04-16T03:47:17.026Z,53.3
2023-04-16T03:49:20.883Z,28.8
2023-04-16T03:53:28.574Z,42.3
2023-04-16T03:55:32.437Z,42.7
2023-04-16T03:57:36.266Z,46
2023-04-16T03:59:42.977Z,45.6
2023-04-16T04:01:46.903Z,46.3
2023-04-16T04:03:50.756Z,46.2
2023-04-16T04:05:54.500Z,59.6
2023-04-16T04:12:06.051Z,45.8
2023-04-16T04:18:20.405Z,42.3
2023-04-16T04:22:28.087Z,51.6
2023-04-16T04:24:31.927Z,53.7
2023-04-16T04:26:35.811Z,36.8
2023-04-16T04:28:42.443Z,45.9
2023-04-16T04:33:53.453Z,57.2
2023-04-16T04:35:57.308Z,49
2023-04-16T04:38:02.503Z,52.2
2023-04-16T04:40:05.012Z,38.5
2023-04-16T04:42:11.668Z,51
2023-04-16T04:44:15.497Z,52.2
2023-04-16T04:46:19.479Z,47.4
2023-04-16T04:48:23.200Z,40.5
2023-04-16T04:50:28.302Z,62.8
2023-04-16T04:52:30.874Z,42.8
2023-04-16T04:54:34.724Z,48.6
2023-04-16T04:56:41.380Z,47.1
2023-04-16T04:58:45.214Z,50.6
2023-04-16T05:00:49.103Z,43
2023-04-16T05:02:52.958Z,24.6
2023-04-16T05:07:00.623Z,42
2023-04-16T05:09:04.463Z,47.7
2023-04-16T05:13:14.959Z,56
2023-04-16T05:15:18.792Z,54.5
2023-04-16T05:21:30.318Z,52
2023-04-16T05:27:44.719Z,62.8
2023-04-16T05:30:51.871Z,43.7
2023-04-16T05:34:59.561Z,46
2023-04-16T05:37:03.400Z,36.4
2023-04-16T05:45:23.100Z,33.1
2023-04-16T05:47:26.931Z,47.8
2023-04-16T05:49:30.744Z,38.5
2023-04-16T05:53:41.233Z,46.7
2023-04-16T05:55:45.091Z,50.5
2023-04-16T05:57:48.959Z,46.3
2023-04-16T05:59:52.789Z,54.3
2023-04-16T06:01:56.666Z,41.7
2023-04-16T06:04:00.606Z,48
2023-04-16T06:06:04.446Z,47
2023-04-16T06:10:14.869Z,37.6
2023-04-16T06:12:19.032Z,38.4
2023-04-16T06:14:22.612Z,50.9
2023-04-16T06:18:30.293Z,37.4
2023-04-16T06:20:34.158Z,50
2023-04-16T06:22:40.814Z,44.6
2023-04-16T06:24:44.685Z,49
2023-04-16T06:26:48.531Z,40.6
2023-04-16T06:29:06.729Z,56.5
2023-04-16T06:31:10.552Z,40.6
2023-04-16T06:33:14.428Z,44.2
2023-04-16T06:37:24.942Z,49.5
2023-04-16T06:39:28.804Z,48.1
2023-04-16T06:43:36.519Z,43.8
2023-04-16T06:45:40.359Z,47.7
2023-04-16T06:47:44.242Z,43.9
2023-04-16T06:49:50.884Z,62.5
2023-04-16T06:51:54.737Z,43.6
2023-04-16T06:53:58.614Z,53.3
2023-04-16T06:56:02.460Z,52.7
2023-04-16T06:58:06.299Z,58.8
2023-04-16T07:00:10.158Z,44.6
2023-04-16T07:02:14.085Z,72.1
2023-04-16T07:04:20.760Z,61
2023-04-16T07:06:24.541Z,55.9
2023-04-16T07:08:28.376Z,55.1
2023-04-16T07:10:34.336Z,43.8
2023-04-16T07:12:36.085Z,31.2
2023-04-16T07:14:39.933Z,49.2
2023-04-16T07:18:50.482Z,54.6
2023-04-16T07:24:01.576Z,62.4
2023-04-16T07:26:05.423Z,59.5
2023-04-16T07:28:09.281Z,48.4
2023-04-16T07:30:13.133Z,49.4
2023-04-16T07:32:19.926Z,49.5
2023-04-16T07:34:23.663Z,34.7
2023-04-16T07:36:27.506Z,56.1
2023-04-16T07:38:31.407Z,52.5
2023-04-16T07:40:35.258Z,49.4
2023-04-16T07:44:42.942Z,44.6
2023-04-16T07:46:49.681Z,65.2
2023-04-16T07:48:53.490Z,60.6
2023-04-16T07:50:57.353Z,47.5
2023-04-16T07:55:05.118Z,37.8
2023-04-16T07:57:08.976Z,51.8
2023-04-16T08:19:57.151Z,32.4
2023-04-16T08:21:00.501Z,57.2
2023-04-16T08:33:26.546Z,58.1
2023-04-16T08:52:04.188Z,60.4
2023-04-16T08:56:11.967Z,41.9
2023-04-16T08:58:18.665Z,47.9
2023-04-16T09:00:22.551Z,45
2023-04-16T09:02:26.728Z,38.3
2023-04-16T09:04:30.418Z,46
2023-04-16T09:06:34.189Z,39.6
2023-04-16T09:08:38.096Z,45.1
2023-04-16T09:10:41.963Z,42
2023-04-16T09:12:48.679Z,53.1
2023-04-16T09:16:56.446Z,49.2
2023-04-16T09:24:11.453Z,65.1
2023-04-16T09:26:18.179Z,41.7
2023-04-16T09:28:22.098Z,43.5
2023-04-16T09:32:29.918Z,34.4
2023-04-16T09:34:33.776Z,37.4
2023-04-16T09:36:37.679Z,33.6
2023-04-16T09:38:41.597Z,32.5
2023-04-16T09:40:49.378Z,50.5
2023-04-16T09:42:52.203Z,56.7
2023-04-16T09:44:58.747Z,35.8
2023-04-16T09:46:59.996Z,36.6
2023-04-16T09:49:03.892Z,30.6
2023-04-16T09:51:07.799Z,24
2023-04-16T09:53:11.730Z,27.7
2023-04-16T09:57:22.351Z,41.5
2023-04-16T10:03:34.415Z,27.9
2023-04-16T10:05:39.566Z,35.3
2023-04-16T10:09:48.648Z,30.8
2023-04-16T10:11:52.562Z,28.5
2023-04-16T10:16:26.087Z,27.7
2023-04-16T10:18:29.954Z,34.7
2023-04-16T10:20:36.401Z,31.5
2023-04-16T10:24:44.529Z,28.8
2023-04-16T10:26:48.447Z,27.6
2023-04-16T10:28:52.366Z,32.2
2023-04-16T10:30:56.357Z,25.3
2023-04-16T10:33:00.775Z,43.3
2023-04-16T10:35:04.114Z,33.9
2023-04-16T10:37:10.847Z,25.1
2023-04-16T10:39:17.055Z,26.7
2023-04-16T10:41:18.683Z,31.4
2023-04-16T10:43:22.585Z,38.7
2023-04-16T10:45:26.538Z,18.9
2023-04-16T10:47:30.480Z,32.2
2023-04-16T10:49:34.337Z,22.9
2023-04-16T10:51:41.103Z,25.3
2023-04-16T10:53:45.006Z,25.9
2023-04-16T10:55:48.920Z,34.4
2023-04-16T10:57:52.850Z,23.9
2023-04-16T10:59:56.771Z,30.3
2023-04-16T11:02:00.722Z,23.6
2023-04-16T11:04:04.739Z,25.3
2023-04-16T11:06:11.337Z,31.2
2023-04-16T11:08:15.236Z,21.8
2023-04-16T11:10:19.143Z,26
2023-04-16T11:13:26.438Z,26.1
2023-04-16T11:17:34.291Z,34.6
2023-04-16T11:38:19.114Z,21.4
2023-04-16T11:40:23.042Z,24.9
2023-04-16T11:42:28.613Z,20.1
2023-04-16T11:44:32.326Z,35.8
2023-04-16T11:46:36.266Z,27.7
2023-04-16T11:48:42.978Z,28.9
2023-04-16T12:05:17.332Z,19.7
2023-04-16T12:08:24.459Z,31.3
2023-04-16T12:14:36.242Z,20.5
2023-04-16T12:16:43.043Z,27.1
2023-04-16T12:18:46.882Z,30.5
2023-04-16T12:20:50.800Z,21.8
2023-04-16T12:22:54.723Z,19.9
2023-04-16T12:24:58.601Z,23.8
2023-04-16T12:27:02.558Z,21.9
2023-04-16T12:49:51.211Z,26.3
2023-04-16T12:51:55.145Z,32.2
2023-04-16T12:56:02.936Z,21.9
2023-04-16T13:02:17.718Z,31
2023-04-16T13:05:24.816Z,22.7
2023-04-16T13:07:28.726Z,20.8
2023-04-16T13:09:32.627Z,18.4
2023-04-16T13:11:36.563Z,33.4
2023-04-16T13:13:43.299Z,23.1
2023-04-16T13:19:55.066Z,29.6
2023-04-16T13:21:58.985Z,30.3
2023-04-16T13:26:06.809Z,21.6
2023-04-16T13:30:17.480Z,32.2
2023-04-16T13:32:21.433Z,24.2
2023-04-16T13:34:25.316Z,24.2
2023-04-16T13:36:29.224Z,27.3
2023-04-16T13:38:33.154Z,27.1
2023-04-16T13:40:37.243Z,21.1
2023-04-16T13:50:59.523Z,19.1
2023-04-16T13:53:03.411Z,26.8
2023-04-16T13:55:07.324Z,34.7
2023-04-16T13:57:14.093Z,24.4
2023-04-16T13:59:17.988Z,18.1
2023-04-16T14:01:21.960Z,16.8
2023-04-16T14:03:51.523Z,19.7
2023-04-16T14:05:55.420Z,21.5
2023-04-16T14:07:59.338Z,20.8
2023-04-16T14:12:09.988Z,24.6
2023-04-16T14:18:21.708Z,23.3
2023-04-16T14:20:25.636Z,17.2
2023-04-16T14:24:36.315Z,25.5
2023-04-16T14:30:48.026Z,20.6
2023-04-16T14:32:52.004Z,19.3
2023-04-16T14:39:06.502Z,21.2
2023-04-16T14:41:10.442Z,18.5
2023-04-16T14:43:14.358Z,25.5
2023-04-16T14:45:18.250Z,25.2
2023-04-16T14:49:26.088Z,22.2
2023-04-16T14:51:29.987Z,30.9
2023-04-16T14:53:36.725Z,17.2
2023-04-16T14:55:41.341Z,30.7
2023-04-16T14:57:44.575Z,25.1
2023-04-16T14:58:47.911Z,17.9
2023-04-16T15:00:51.842Z,30.7
2023-04-16T15:02:55.885Z,33.5
2023-04-16T15:04:59.649Z,21.8
2023-04-16T15:15:22.012Z,19.3
2023-04-16T15:17:25.934Z,23
2023-04-16T15:19:29.829Z,23.8
2023-04-16T15:29:52.210Z,18.7
2023-04-16T15:31:56.099Z,25.2
2023-04-16T15:34:00.023Z,25.7
2023-04-16T15:36:06.773Z,20.5
2023-04-16T15:38:10.658Z,21.7
2023-04-16T15:40:14.594Z,14.3
2023-04-16T15:42:18.512Z,17.9
2023-04-16T15:44:22.410Z,32.9
2023-04-16T15:48:30.230Z,14.1
2023-04-16T15:50:36.985Z,27.9
2023-04-16T15:52:40.887Z,30.7
2023-04-16T15:54:44.786Z,21.6
2023-04-16T15:55:48.152Z,29.4
2023-04-16T16:04:06.824Z,27.5
2023-04-16T16:06:10.551Z,25.3
2023-04-16T16:08:14.457Z,23
2023-04-16T16:12:22.262Z,25.8
2023-04-16T16:14:26.170Z,22.4
2023-04-16T16:16:30.168Z,26.9
2023-04-16T16:18:36.820Z,30.4
2023-04-16T16:20:40.726Z,20.5
2023-04-16T16:22:44.607Z,23.8
2023-04-16T16:24:48.536Z,18.3
2023-04-16T16:26:52.432Z,26.2
2023-04-16T16:28:57.266Z,26.4
2023-04-16T16:31:01.202Z,30.9
2023-04-16T16:33:07.950Z,31.2
2023-04-16T16:41:23.487Z,21.7
2023-04-16T16:45:31.322Z,22.3
2023-04-16T16:49:41.951Z,23.9
2023-04-16T16:52:49.183Z,21.7
2023-04-16T16:54:53.102Z,23.4
2023-04-16T16:56:57.010Z,27.1
2023-04-16T16:59:00.897Z,25.9
2023-04-16T17:01:07.711Z,23.8
2023-04-16T17:03:11.698Z,27.8
2023-04-16T17:13:30.988Z,17.2
2023-04-16T17:17:41.674Z,23.1
2023-04-16T17:19:45.501Z,27.6
2023-04-16T17:21:49.402Z,20.1
2023-04-16T17:23:53.289Z,32
2023-04-16T17:32:11.712Z,25.3
2023-04-16T17:38:23.366Z,30.8
2023-04-16T17:44:39.226Z,26
2023-04-16T17:46:43.115Z,26.7
2023-04-16T17:48:47.002Z,28.3
2023-04-16T17:51:16.675Z,20.4
2023-04-16T17:55:24.421Z,27.3
2023-04-16T17:57:31.036Z,22.2
2023-04-16T18:01:38.922Z,26.9
2023-04-16T18:03:42.761Z,25
2023-04-16T18:05:46.602Z,21.4
2023-04-16T18:07:50.505Z,33.1
2023-04-16T18:09:54.381Z,20
2023-04-16T18:12:01.113Z,41.1
2023-04-16T18:14:04.942Z,22.5
2023-04-16T18:16:08.865Z,30.7
2023-04-16T18:18:12.696Z,24.3
2023-04-16T18:20:16.592Z,24.7
2023-04-16T18:22:20.455Z,36.5
2023-04-16T18:24:24.338Z,26.4
2023-04-16T18:28:34.912Z,28.8
2023-04-16T18:30:40.490Z,24.8
2023-04-16T18:32:59.886Z,24.3
2023-04-16T18:34:46.533Z,26.7
2023-04-16T18:36:50.416Z,32.3
2023-04-16T18:39:01.067Z,31.5
2023-04-16T18:41:01.005Z,35.2
2023-04-16T18:43:04.887Z,29.9
2023-04-16T18:46:12.150Z,40.1
2023-04-16T18:48:15.987Z,38.2
2023-04-16T18:50:19.855Z,31.1
2023-04-16T18:52:23.774Z,36
2023-04-16T18:54:30.464Z,44.8
2023-04-16T18:58:38.208Z,35.4
2023-04-16T19:00:42.150Z,28.7
2023-04-16T19:02:46.056Z,31
2023-04-16T19:04:49.857Z,38.6
2023-04-16T19:11:04.278Z,30.6
2023-04-16T19:13:08.163Z,36.5
2023-04-16T19:15:12.028Z,34.5
2023-04-16T19:17:15.914Z,38.3
2023-04-16T19:19:19.808Z,42.6
2023-04-16T19:21:23.673Z,22.9
2023-04-16T19:23:30.379Z,34.6
2023-04-16T19:25:34.281Z,42
2023-04-16T19:38:00.356Z,30.2
2023-04-16T19:43:11.440Z,42.6
2023-04-16T19:45:15.345Z,38.3
2023-04-16T19:47:19.194Z,29.6
2023-04-16T19:49:23.091Z,41
2023-04-16T19:51:29.797Z,36.5
2023-04-16T19:53:33.645Z,43.2
2023-04-16T19:55:37.530Z,35
2023-04-16T19:57:41.415Z,36.6
2023-04-16T19:59:45.296Z,44.7
2023-04-16T20:01:49.261Z,42.6
2023-04-16T20:03:53.045Z,27.7
2023-04-16T20:05:59.866Z,43.4
2023-04-16T20:08:03.610Z,38.1
2023-04-16T20:10:07.480Z,29.9
2023-04-16T20:12:11.380Z,41.6
2023-04-16T20:14:15.250Z,39.6
2023-04-16T20:16:19.136Z,36.6
2023-04-16T20:18:23.002Z,29.7
2023-04-16T20:20:29.698Z,41.3
2023-04-16T20:22:33.571Z,44.4
2023-04-16T20:24:37.464Z,23.8
2023-04-16T20:26:41.331Z,33.3
2023-04-16T20:28:45.556Z,23.4
2023-04-16T20:30:49.095Z,30.4
2023-04-16T20:32:53.012Z,27.2
2023-04-16T20:34:59.620Z,33.1
2023-04-16T20:37:03.479Z,47.4
2023-04-16T20:39:07.360Z,27.8
2023-04-16T20:56:44.446Z,33.2
2023-04-16T21:00:52.183Z,33.9
2023-04-16T21:02:58.962Z,47.9
2023-04-16T21:07:06.589Z,34.2
2023-04-16T21:09:10.707Z,35.3
2023-04-16T21:23:40.271Z,48
2023-04-16T21:25:44.129Z,36.7
2023-04-16T21:44:50.518Z,39.9
2023-04-16T21:46:54.430Z,33.8
2023-04-16T21:48:58.262Z,34.2
2023-04-16T21:51:02.093Z,35.4
2023-04-16T21:55:09.842Z,32.4
2023-04-16T21:57:13.678Z,21.2
2023-04-16T21:59:20.330Z,31
2023-04-16T22:01:24.316Z,43.3
2023-04-16T22:03:28.438Z,46.8
2023-04-16T22:05:31.897Z,40.3
2023-04-16T22:07:35.764Z,44.3
2023-04-16T22:09:39.607Z,35.4
2023-04-16T22:11:43.462Z,41.8
2023-04-16T22:13:50.133Z,38.9
2023-04-16T22:15:53.988Z,36.3
2023-04-16T22:17:57.859Z,48.7
2023-04-16T22:20:01.691Z,42.1
2023-04-16T22:22:05.493Z,37.4
2023-04-16T22:24:09.351Z,43.7
2023-04-16T22:26:13.207Z,35.1
2023-04-16T22:30:23.686Z,37
2023-04-16T22:32:27.632Z,38.9
2023-04-16T22:52:08.961Z,36
2023-04-16T22:56:19.446Z,42.2
2023-04-16T23:00:27.140Z,42.7
2023-04-16T23:02:31.064Z,53.1
2023-04-16T23:04:34.884Z,48.6
2023-04-16T23:06:38.662Z,37.4
2023-04-16T23:08:42.514Z,43.5
2023-04-16T23:10:49.200Z,44.8
2023-04-16T23:12:53.029Z,31.3
2023-04-16T23:14:56.864Z,40.9
2023-04-16T23:17:00.702Z,45.6
2023-04-16T23:21:08.373Z,36.7
2023-04-16T23:23:12.246Z,43.7
2023-04-16T23:27:22.718Z,32.8
2023-04-16T23:30:29.914Z,34.9
2023-04-16T23:32:33.825Z,43.7
2023-04-16T23:34:37.593Z,38.2
2023-04-16T23:38:49.554Z,46.8
2023-04-16T23:40:53.375Z,44.2
2023-04-16T23:42:57.207Z,41.5
2023-04-16T23:47:04.925Z,44.2
2023-04-16T23:55:23.033Z,49.8
